Pelzer, Indiana
Current Conditions -  °F | °C
As of 1:54 AM on Saturday 20 Dec 2014 (Local Time) from KEVV Reporting Station
Overcast Overcast  
Wind Chill: 32°   Ceiling: 5000
Heat Index: 32°   Visibility: 10mi
Dew Point: 26°   Wind: 3mph
Humidity: 79%   Direction: 80°E
Pressure: 30.29"   Gusts: NA
Location:  38.0544°N, 87.2562°W
Report Text: KEVV 200754Z AUTO 08003KT 10SM OVC050 00/M03 A3029 RMK AO2 SLP261 T00001033
Loading
Personal Weather Stations






























Interactive Weather Map New forecast layout! Learn more

10-Day Weather Forecast

Advertisements
Track Severe Weather on mobile